METAR Analyzer

一覧表示

Hello, Guest. (Login)

LTBA/ISL  -  イスタンブール・アタテュルク

観測日時
2021-08-05 00:50 (UTC) (38分前)
気温
25
露点
20
湿数
5
相対湿度
73.8%
QNH
1013hPa
推定現地気圧
1007.0hPa
推定海面気圧
1012.8hPa
体感温度
20.4
(無風時)
24.6
HI
25.5
気温前日比
±0
体感温度前日比
-5.4
HI前日比
-0.5
水平視程
>10000m
鉛直視程
データなし
雲底高度
No dense clouds
V/I
VMC (VFR)
RVR
No RVR data
卓越風
4kt from 360° (310° ~ 40°)
ガスト
No gust
降水
報告なし
その他の天気
報告なし
報告なし

LTBA 050050Z 36004KT 310V040 CAVOK 25/20 Q1013 NOSIG RMK RWY23 36003G13KT 310V100

LTFM/IST  -  イスタンブール (新)

観測日時
2021-08-05 00:50 (UTC) (38分前)
気温
25
露点
23
湿数
2
相対湿度
88.7%
QNH
1014hPa
推定現地気圧
1002.2hPa
推定海面気圧
1013.6hPa
体感温度
20.7
(無風時)
25.5
HI
25.9
気温前日比
±0
体感温度前日比
-0.2
HI前日比
-0.1
水平視程
>10000m
鉛直視程
データなし
雲底高度
No dense clouds
V/I
VMC (VFR)
RVR
No RVR data
卓越風
5kt from 60°
ガスト
No gust
降水
報告なし
その他の天気
報告なし
少しの雲 @ 800ft AGL

LTFM 050050Z 06005KT 9999 FEW008 25/23 Q1014 NOSIG RMK RWY17L 08002KT RWY34L 00000KT RWY16R 00000KT RWY36 06004KT 020V080 RWY18 00000KT

5.1msec